sensor_id;sensor_type;location;lat;lon;timestamp;temperature;humidity
27671;DHT22;15077;49.704;9.908;2023-07-09T00:01:21;26.40;42.70
27671;DHT22;15077;49.704;9.908;2023-07-09T00:03:47;26.30;42.80
27671;DHT22;15077;49.704;9.908;2023-07-09T00:06:17;26.30;42.90
27671;DHT22;15077;49.704;9.908;2023-07-09T00:08:45;26.30;42.90
27671;DHT22;15077;49.704;9.908;2023-07-09T00:11:17;26.30;43.10
27671;DHT22;15077;49.704;9.908;2023-07-09T00:13:42;26.20;43.10
27671;DHT22;15077;49.704;9.908;2023-07-09T00:16:15;26.20;43.20
27671;DHT22;15077;49.704;9.908;2023-07-09T00:18:44;26.10;43.40
27671;DHT22;15077;49.704;9.908;2023-07-09T00:21:15;26.10;43.30
27671;DHT22;15077;49.704;9.908;2023-07-09T00:23:42;26.10;43.40
27671;DHT22;15077;49.704;9.908;2023-07-09T00:26:12;26.00;43.60
27671;DHT22;15077;49.704;9.908;2023-07-09T00:28:40;26.00;43.60
27671;DHT22;15077;49.704;9.908;2023-07-09T00:31:12;25.90;43.70
27671;DHT22;15077;49.704;9.908;2023-07-09T00:33:41;25.90;43.80
27671;DHT22;15077;49.704;9.908;2023-07-09T00:38:42;25.80;44.10
27671;DHT22;15077;49.704;9.908;2023-07-09T00:41:19;25.80;44.00
27671;DHT22;15077;49.704;9.908;2023-07-09T00:43:47;25.70;44.10
27671;DHT22;15077;49.704;9.908;2023-07-09T00:48:59;25.70;44.10
27671;DHT22;15077;49.704;9.908;2023-07-09T00:51:30;25.60;44.20
27671;DHT22;15077;49.704;9.908;2023-07-09T00:54:11;25.60;44.20
27671;DHT22;15077;49.704;9.908;2023-07-09T00:56:46;25.60;44.50
27671;DHT22;15077;49.704;9.908;2023-07-09T00:59:20;25.50;44.30
27671;DHT22;15077;49.704;9.908;2023-07-09T01:01:51;25.50;44.40
27671;DHT22;15077;49.704;9.908;2023-07-09T01:04:21;25.50;44.40
27671;DHT22;15077;49.704;9.908;2023-07-09T01:06:52;25.40;44.50
27671;DHT22;15077;49.704;9.908;2023-07-09T01:09:22;25.40;44.60
27671;DHT22;15077;49.704;9.908;2023-07-09T01:11:49;25.30;44.50
27671;DHT22;15077;49.704;9.908;2023-07-09T01:14:19;25.30;44.70
27671;DHT22;15077;49.704;9.908;2023-07-09T01:16:53;25.20;44.90
27671;DHT22;15077;49.704;9.908;2023-07-09T01:19:35;25.20;45.00
27671;DHT22;15077;49.704;9.908;2023-07-09T01:22:09;25.20;44.90
27671;DHT22;15077;49.704;9.908;2023-07-09T01:25:02;25.20;44.50
27671;DHT22;15077;49.704;9.908;2023-07-09T01:27:38;25.10;44.80
27671;DHT22;15077;49.704;9.908;2023-07-09T01:30:10;25.10;45.00
27671;DHT22;15077;49.704;9.908;2023-07-09T01:32:40;25.00;45.00
27671;DHT22;15077;49.704;9.908;2023-07-09T01:35:14;24.90;45.10
27671;DHT22;15077;49.704;9.908;2023-07-09T01:37:43;24.90;45.30
27671;DHT22;15077;49.704;9.908;2023-07-09T01:40:13;24.90;45.30
27671;DHT22;15077;49.704;9.908;2023-07-09T01:42:41;24.90;45.50
27671;DHT22;15077;49.704;9.908;2023-07-09T01:45:08;24.80;45.50
27671;DHT22;15077;49.704;9.908;2023-07-09T01:47:37;24.80;45.60
27671;DHT22;15077;49.704;9.908;2023-07-09T01:50:05;24.70;45.70
27671;DHT22;15077;49.704;9.908;2023-07-09T01:52:35;24.70;45.90
27671;DHT22;15077;49.704;9.908;2023-07-09T01:55:04;24.70;45.90
27671;DHT22;15077;49.704;9.908;2023-07-09T01:57:30;24.60;45.90
27671;DHT22;15077;49.704;9.908;2023-07-09T02:00:03;24.60;45.90
27671;DHT22;15077;49.704;9.908;2023-07-09T02:02:36;24.50;46.10
27671;DHT22;15077;49.704;9.908;2023-07-09T02:05:05;24.50;46.10
27671;DHT22;15077;49.704;9.908;2023-07-09T02:07:32;24.50;46.20
27671;DHT22;15077;49.704;9.908;2023-07-09T02:09:58;24.50;46.20
27671;DHT22;15077;49.704;9.908;2023-07-09T02:12:25;24.50;46.30
27671;DHT22;15077;49.704;9.908;2023-07-09T02:14:51;24.40;46.40
27671;DHT22;15077;49.704;9.908;2023-07-09T02:17:17;24.40;46.40
27671;DHT22;15077;49.704;9.908;2023-07-09T02:19:44;24.40;46.50
27671;DHT22;15077;49.704;9.908;2023-07-09T02:22:11;24.30;46.40
27671;DHT22;15077;49.704;9.908;2023-07-09T02:24:38;24.30;46.50
27671;DHT22;15077;49.704;9.908;2023-07-09T02:27:06;24.30;46.60
27671;DHT22;15077;49.704;9.908;2023-07-09T02:29:34;24.20;46.60
27671;DHT22;15077;49.704;9.908;2023-07-09T02:32:02;24.20;46.70
27671;DHT22;15077;49.704;9.908;2023-07-09T02:34:30;24.20;46.70
27671;DHT22;15077;49.704;9.908;2023-07-09T02:36:57;24.20;46.80
27671;DHT22;15077;49.704;9.908;2023-07-09T02:39:25;24.10;46.90
27671;DHT22;15077;49.704;9.908;2023-07-09T02:41:54;24.10;47.00
27671;DHT22;15077;49.704;9.908;2023-07-09T02:44:20;24.10;47.00
27671;DHT22;15077;49.704;9.908;2023-07-09T02:46:46;24.00;47.00
27671;DHT22;15077;49.704;9.908;2023-07-09T02:49:14;24.00;47.00
27671;DHT22;15077;49.704;9.908;2023-07-09T02:51:42;24.00;47.20
27671;DHT22;15077;49.704;9.908;2023-07-09T02:54:09;24.00;47.20
27671;DHT22;15077;49.704;9.908;2023-07-09T02:56:36;23.90;47.20
27671;DHT22;15077;49.704;9.908;2023-07-09T02:59:03;23.90;47.30
27671;DHT22;15077;49.704;9.908;2023-07-09T03:01:30;23.90;47.40
27671;DHT22;15077;49.704;9.908;2023-07-09T03:04:00;23.80;47.50
27671;DHT22;15077;49.704;9.908;2023-07-09T03:06:29;23.80;47.50
27671;DHT22;15077;49.704;9.908;2023-07-09T03:08:59;23.80;47.60
27671;DHT22;15077;49.704;9.908;2023-07-09T03:11:30;23.80;47.60
27671;DHT22;15077;49.704;9.908;2023-07-09T03:13:58;23.80;47.90
27671;DHT22;15077;49.704;9.908;2023-07-09T03:16:27;23.70;47.80
27671;DHT22;15077;49.704;9.908;2023-07-09T03:18:54;23.70;47.90
27671;DHT22;15077;49.704;9.908;2023-07-09T03:21:24;23.70;47.90
27671;DHT22;15077;49.704;9.908;2023-07-09T03:23:53;23.70;48.00
27671;DHT22;15077;49.704;9.908;2023-07-09T03:26:21;23.60;48.00
27671;DHT22;15077;49.704;9.908;2023-07-09T03:28:52;23.60;48.00
27671;DHT22;15077;49.704;9.908;2023-07-09T03:31:20;23.60;48.30
27671;DHT22;15077;49.704;9.908;2023-07-09T03:33:47;23.50;48.10
27671;DHT22;15077;49.704;9.908;2023-07-09T03:36:14;23.50;48.10
27671;DHT22;15077;49.704;9.908;2023-07-09T03:38:41;23.50;48.30
27671;DHT22;15077;49.704;9.908;2023-07-09T03:41:11;23.40;48.20
27671;DHT22;15077;49.704;9.908;2023-07-09T03:43:37;23.50;48.30
27671;DHT22;15077;49.704;9.908;2023-07-09T03:46:03;23.40;48.30
27671;DHT22;15077;49.704;9.908;2023-07-09T03:48:30;23.40;48.40
27671;DHT22;15077;49.704;9.908;2023-07-09T03:50:57;23.40;48.50
27671;DHT22;15077;49.704;9.908;2023-07-09T03:53:26;23.40;48.70
27671;DHT22;15077;49.704;9.908;2023-07-09T03:55:54;23.30;48.70
27671;DHT22;15077;49.704;9.908;2023-07-09T03:58:21;23.30;48.70
27671;DHT22;15077;49.704;9.908;2023-07-09T04:00:51;23.30;48.70
27671;DHT22;15077;49.704;9.908;2023-07-09T04:03:17;23.30;48.90
27671;DHT22;15077;49.704;9.908;2023-07-09T04:05:43;23.30;49.00
27671;DHT22;15077;49.704;9.908;2023-07-09T04:08:09;23.30;49.10
27671;DHT22;15077;49.704;9.908;2023-07-09T04:10:34;23.30;49.10
27671;DHT22;15077;49.704;9.908;2023-07-09T04:13:00;23.20;49.20
27671;DHT22;15077;49.704;9.908;2023-07-09T04:15:26;23.20;49.20
27671;DHT22;15077;49.704;9.908;2023-07-09T04:17:53;23.20;49.40
27671;DHT22;15077;49.704;9.908;2023-07-09T04:20:18;23.20;49.30
27671;DHT22;15077;49.704;9.908;2023-07-09T04:22:44;23.30;49.50
27671;DHT22;15077;49.704;9.908;2023-07-09T04:25:11;23.20;49.60
27671;DHT22;15077;49.704;9.908;2023-07-09T04:27:38;23.20;49.60
27671;DHT22;15077;49.704;9.908;2023-07-09T04:30:07;23.20;50.00
27671;DHT22;15077;49.704;9.908;2023-07-09T04:32:36;23.10;50.00
27671;DHT22;15077;49.704;9.908;2023-07-09T04:35:03;23.10;49.80
27671;DHT22;15077;49.704;9.908;2023-07-09T04:37:32;23.00;50.00
27671;DHT22;15077;49.704;9.908;2023-07-09T04:39:57;23.00;49.90
27671;DHT22;15077;49.704;9.908;2023-07-09T04:42:23;23.00;49.90
27671;DHT22;15077;49.704;9.908;2023-07-09T04:44:49;23.00;50.00
27671;DHT22;15077;49.704;9.908;2023-07-09T04:47:15;23.00;50.10
27671;DHT22;15077;49.704;9.908;2023-07-09T04:49:41;23.00;50.20
27671;DHT22;15077;49.704;9.908;2023-07-09T04:52:08;23.00;50.30
27671;DHT22;15077;49.704;9.908;2023-07-09T04:54:39;23.10;50.30
27671;DHT22;15077;49.704;9.908;2023-07-09T04:57:08;23.10;50.70
27671;DHT22;15077;49.704;9.908;2023-07-09T04:59:34;23.20;50.20
27671;DHT22;15077;49.704;9.908;2023-07-09T05:02:00;23.20;50.50
27671;DHT22;15077;49.704;9.908;2023-07-09T05:04:26;23.20;50.90
27671;DHT22;15077;49.704;9.908;2023-07-09T05:06:51;23.20;51.20
27671;DHT22;15077;49.704;9.908;2023-07-09T05:09:17;23.20;51.60
27671;DHT22;15077;49.704;9.908;2023-07-09T05:11:43;23.30;51.60
27671;DHT22;15077;49.704;9.908;2023-07-09T05:14:09;23.30;51.80
27671;DHT22;15077;49.704;9.908;2023-07-09T05:16:35;23.40;52.10
27671;DHT22;15077;49.704;9.908;2023-07-09T05:19:01;23.40;52.10
27671;DHT22;15077;49.704;9.908;2023-07-09T05:21:27;23.50;52.30
27671;DHT22;15077;49.704;9.908;2023-07-09T05:23:53;23.50;52.80
27671;DHT22;15077;49.704;9.908;2023-07-09T05:26:18;23.60;52.60
27671;DHT22;15077;49.704;9.908;2023-07-09T05:28:44;23.60;52.30
27671;DHT22;15077;49.704;9.908;2023-07-09T05:31:10;23.60;52.20
27671;DHT22;15077;49.704;9.908;2023-07-09T05:33:36;23.70;52.40
27671;DHT22;15077;49.704;9.908;2023-07-09T05:36:02;23.70;52.70
27671;DHT22;15077;49.704;9.908;2023-07-09T05:38:28;23.70;52.70
27671;DHT22;15077;49.704;9.908;2023-07-09T05:41:03;23.80;52.30
27671;DHT22;15077;49.704;9.908;2023-07-09T05:43:30;23.80;52.50
27671;DHT22;15077;49.704;9.908;2023-07-09T05:45:56;23.90;52.70
27671;DHT22;15077;49.704;9.908;2023-07-09T05:48:22;23.90;52.30
27671;DHT22;15077;49.704;9.908;2023-07-09T05:50:52;24.00;52.40
27671;DHT22;15077;49.704;9.908;2023-07-09T05:53:20;24.00;52.10
27671;DHT22;15077;49.704;9.908;2023-07-09T05:55:46;24.10;52.30
27671;DHT22;15077;49.704;9.908;2023-07-09T05:58:12;24.10;52.70
27671;DHT22;15077;49.704;9.908;2023-07-09T06:00:37;24.10;53.40
27671;DHT22;15077;49.704;9.908;2023-07-09T06:03:07;24.20;53.30
27671;DHT22;15077;49.704;9.908;2023-07-09T06:05:35;24.30;53.30
27671;DHT22;15077;49.704;9.908;2023-07-09T06:08:02;24.40;54.20
27671;DHT22;15077;49.704;9.908;2023-07-09T06:10:31;24.40;53.10
27671;DHT22;15077;49.704;9.908;2023-07-09T06:12:56;24.40;52.80
27671;DHT22;15077;49.704;9.908;2023-07-09T06:15:25;24.50;52.90
27671;DHT22;15077;49.704;9.908;2023-07-09T06:17:51;24.50;52.70
27671;DHT22;15077;49.704;9.908;2023-07-09T06:20:17;24.60;52.90
27671;DHT22;15077;49.704;9.908;2023-07-09T06:22:43;24.60;52.90
27671;DHT22;15077;49.704;9.908;2023-07-09T06:25:09;24.70;53.00
27671;DHT22;15077;49.704;9.908;2023-07-09T06:27:35;24.70;52.80
27671;DHT22;15077;49.704;9.908;2023-07-09T06:30:00;24.80;53.20
27671;DHT22;15077;49.704;9.908;2023-07-09T06:32:26;24.90;53.00
27671;DHT22;15077;49.704;9.908;2023-07-09T06:34:52;24.90;53.20
27671;DHT22;15077;49.704;9.908;2023-07-09T06:37:18;25.00;53.00
27671;DHT22;15077;49.704;9.908;2023-07-09T06:39:43;25.10;53.30
27671;DHT22;15077;49.704;9.908;2023-07-09T06:42:09;25.20;53.10
27671;DHT22;15077;49.704;9.908;2023-07-09T06:44:35;25.20;53.50
27671;DHT22;15077;49.704;9.908;2023-07-09T06:47:00;25.30;53.70
27671;DHT22;15077;49.704;9.908;2023-07-09T06:49:27;25.40;53.50
27671;DHT22;15077;49.704;9.908;2023-07-09T06:51:53;25.50;53.70
27671;DHT22;15077;49.704;9.908;2023-07-09T06:54:19;25.60;53.50
27671;DHT22;15077;49.704;9.908;2023-07-09T06:56:45;25.70;53.60
27671;DHT22;15077;49.704;9.908;2023-07-09T06:59:10;25.80;53.20
27671;DHT22;15077;49.704;9.908;2023-07-09T07:01:36;25.90;53.20
27671;DHT22;15077;49.704;9.908;2023-07-09T07:04:02;26.00;53.40
27671;DHT22;15077;49.704;9.908;2023-07-09T07:06:27;26.00;53.10
27671;DHT22;15077;49.704;9.908;2023-07-09T07:08:53;26.10;52.90
27671;DHT22;15077;49.704;9.908;2023-07-09T07:11:19;26.20;52.70
27671;DHT22;15077;49.704;9.908;2023-07-09T07:13:45;26.20;52.60
27671;DHT22;15077;49.704;9.908;2023-07-09T07:16:12;26.30;52.50
27671;DHT22;15077;49.704;9.908;2023-07-09T07:18:38;26.40;52.60
27671;DHT22;15077;49.704;9.908;2023-07-09T07:21:05;26.40;52.50
27671;DHT22;15077;49.704;9.908;2023-07-09T07:23:31;26.50;52.40
27671;DHT22;15077;49.704;9.908;2023-07-09T07:25:57;26.60;52.30
27671;DHT22;15077;49.704;9.908;2023-07-09T07:31:09;26.70;52.30
27671;DHT22;15077;49.704;9.908;2023-07-09T07:33:38;26.80;52.30
27671;DHT22;15077;49.704;9.908;2023-07-09T07:36:05;26.90;52.40
27671;DHT22;15077;49.704;9.908;2023-07-09T07:38:32;27.00;52.70
27671;DHT22;15077;49.704;9.908;2023-07-09T07:40:57;27.10;53.00
27671;DHT22;15077;49.704;9.908;2023-07-09T07:43:23;27.20;53.10
27671;DHT22;15077;49.704;9.908;2023-07-09T07:45:49;27.30;53.10
27671;DHT22;15077;49.704;9.908;2023-07-09T07:48:15;27.40;53.30
27671;DHT22;15077;49.704;9.908;2023-07-09T07:50:41;27.60;52.90
27671;DHT22;15077;49.704;9.908;2023-07-09T07:53:07;27.70;52.40
27671;DHT22;15077;49.704;9.908;2023-07-09T07:55:34;27.80;51.90
27671;DHT22;15077;49.704;9.908;2023-07-09T07:58:01;27.90;51.90
27671;DHT22;15077;49.704;9.908;2023-07-09T08:00:29;28.00;51.70
27671;DHT22;15077;49.704;9.908;2023-07-09T08:02:56;28.20;51.70
27671;DHT22;15077;49.704;9.908;2023-07-09T08:05:21;28.20;51.60
27671;DHT22;15077;49.704;9.908;2023-07-09T08:07:49;28.40;51.50
27671;DHT22;15077;49.704;9.908;2023-07-09T08:10:15;28.50;51.30
27671;DHT22;15077;49.704;9.908;2023-07-09T08:12:41;28.60;51.60
27671;DHT22;15077;49.704;9.908;2023-07-09T08:15:07;28.70;51.30
27671;DHT22;15077;49.704;9.908;2023-07-09T08:17:33;28.90;51.10
27671;DHT22;15077;49.704;9.908;2023-07-09T08:19:59;29.00;50.70
27671;DHT22;15077;49.704;9.908;2023-07-09T08:22:26;29.10;50.70
27671;DHT22;15077;49.704;9.908;2023-07-09T08:24:52;29.20;50.70
27671;DHT22;15077;49.704;9.908;2023-07-09T08:27:18;29.30;50.70
27671;DHT22;15077;49.704;9.908;2023-07-09T08:29:44;29.40;51.00
27671;DHT22;15077;49.704;9.908;2023-07-09T08:32:11;29.60;50.70
27671;DHT22;15077;49.704;9.908;2023-07-09T08:34:39;29.70;50.40
27671;DHT22;15077;49.704;9.908;2023-07-09T08:37:07;29.80;49.70
27671;DHT22;15077;49.704;9.908;2023-07-09T08:39:33;30.00;49.50
27671;DHT22;15077;49.704;9.908;2023-07-09T08:42:39;30.10;49.40
27671;DHT22;15077;49.704;9.908;2023-07-09T08:48:18;30.40;48.40
27671;DHT22;15077;49.704;9.908;2023-07-09T08:50:59;30.50;48.10
27671;DHT22;15077;49.704;9.908;2023-07-09T08:53:39;30.70;48.10
27671;DHT22;15077;49.704;9.908;2023-07-09T08:56:10;30.80;47.60
27671;DHT22;15077;49.704;9.908;2023-07-09T08:58:37;31.00;47.30
27671;DHT22;15077;49.704;9.908;2023-07-09T09:01:18;31.10;47.20
27671;DHT22;15077;49.704;9.908;2023-07-09T09:04:00;31.20;46.50
27671;DHT22;15077;49.704;9.908;2023-07-09T09:06:31;31.40;46.60
27671;DHT22;15077;49.704;9.908;2023-07-09T09:11:45;31.70;46.30
27671;DHT22;15077;49.704;9.908;2023-07-09T09:14:37;31.90;46.20
27671;DHT22;15077;49.704;9.908;2023-07-09T09:17:12;32.00;46.20
27671;DHT22;15077;49.704;9.908;2023-07-09T09:19:48;32.20;46.70
27671;DHT22;15077;49.704;9.908;2023-07-09T09:22:29;32.40;45.70
27671;DHT22;15077;49.704;9.908;2023-07-09T09:25:25;32.60;45.70
27671;DHT22;15077;49.704;9.908;2023-07-09T09:27:54;32.70;44.80
27671;DHT22;15077;49.704;9.908;2023-07-09T09:30:22;32.90;45.60
27671;DHT22;15077;49.704;9.908;2023-07-09T09:32:58;33.00;44.90
27671;DHT22;15077;49.704;9.908;2023-07-09T09:35:34;33.20;44.70
27671;DHT22;15077;49.704;9.908;2023-07-09T09:38:02;33.30;44.70
27671;DHT22;15077;49.704;9.908;2023-07-09T09:40:35;33.40;43.90
27671;DHT22;15077;49.704;9.908;2023-07-09T09:43:03;33.50;43.00
27671;DHT22;15077;49.704;9.908;2023-07-09T09:45:40;33.60;42.60
27671;DHT22;15077;49.704;9.908;2023-07-09T09:48:17;33.70;43.00
27671;DHT22;15077;49.704;9.908;2023-07-09T09:50:46;33.80;43.30
27671;DHT22;15077;49.704;9.908;2023-07-09T09:53:40;33.90;42.30
27671;DHT22;15077;49.704;9.908;2023-07-09T09:56:36;34.10;42.60
27671;DHT22;15077;49.704;9.908;2023-07-09T09:59:03;34.20;41.80
27671;DHT22;15077;49.704;9.908;2023-07-09T10:01:33;34.40;42.30
27671;DHT22;15077;49.704;9.908;2023-07-09T10:04:05;34.50;42.00
27671;DHT22;15077;49.704;9.908;2023-07-09T10:06:37;34.60;41.80
27671;DHT22;15077;49.704;9.908;2023-07-09T10:09:46;34.80;41.50
27671;DHT22;15077;49.704;9.908;2023-07-09T10:18:01;35.00;38.80
27671;DHT22;15077;49.704;9.908;2023-07-09T10:20:34;35.20;39.80
27671;DHT22;15077;49.704;9.908;2023-07-09T10:26:14;35.30;39.20
27671;DHT22;15077;49.704;9.908;2023-07-09T10:31:49;35.50;39.90
27671;DHT22;15077;49.704;9.908;2023-07-09T10:34:32;35.70;40.00
27671;DHT22;15077;49.704;9.908;2023-07-09T10:39:40;35.90;39.40
27671;DHT22;15077;49.704;9.908;2023-07-09T10:42:32;36.10;38.90
27671;DHT22;15077;49.704;9.908;2023-07-09T10:45:19;36.20;38.60
27671;DHT22;15077;49.704;9.908;2023-07-09T10:47:58;36.30;38.80
27671;DHT22;15077;49.704;9.908;2023-07-09T10:50:39;36.40;38.40
27671;DHT22;15077;49.704;9.908;2023-07-09T10:56:14;36.60;38.00
27671;DHT22;15077;49.704;9.908;2023-07-09T11:01:31;36.70;37.20
27671;DHT22;15077;49.704;9.908;2023-07-09T11:04:05;36.80;36.60
27671;DHT22;15077;49.704;9.908;2023-07-09T11:06:45;36.80;36.50
27671;DHT22;15077;49.704;9.908;2023-07-09T11:09:35;36.90;36.80
27671;DHT22;15077;49.704;9.908;2023-07-09T11:12:17;37.00;37.10
27671;DHT22;15077;49.704;9.908;2023-07-09T11:14:56;37.00;35.70
27671;DHT22;15077;49.704;9.908;2023-07-09T11:17:27;37.10;36.20
27671;DHT22;15077;49.704;9.908;2023-07-09T11:19:57;37.10;35.80
27671;DHT22;15077;49.704;9.908;2023-07-09T11:22:51;37.20;36.40
27671;DHT22;15077;49.704;9.908;2023-07-09T11:25:39;37.20;34.80
27671;DHT22;15077;49.704;9.908;2023-07-09T11:28:10;37.30;35.80
27671;DHT22;15077;49.704;9.908;2023-07-09T11:30:50;37.40;35.60
27671;DHT22;15077;49.704;9.908;2023-07-09T11:33:26;37.50;36.20
27671;DHT22;15077;49.704;9.908;2023-07-09T11:36:23;37.50;35.30
27671;DHT22;15077;49.704;9.908;2023-07-09T11:38:49;37.60;34.80
27671;DHT22;15077;49.704;9.908;2023-07-09T11:41:36;37.60;35.00
27671;DHT22;15077;49.704;9.908;2023-07-09T11:44:26;37.70;35.50
27671;DHT22;15077;49.704;9.908;2023-07-09T11:52:43;37.90;34.60
27671;DHT22;15077;49.704;9.908;2023-07-09T11:55:23;38.00;34.30
27671;DHT22;15077;49.704;9.908;2023-07-09T11:58:03;38.10;34.80
27671;DHT22;15077;49.704;9.908;2023-07-09T12:00:59;38.10;34.90
27671;DHT22;15077;49.704;9.908;2023-07-09T12:03:34;38.20;34.60
27671;DHT22;15077;49.704;9.908;2023-07-09T12:06:07;38.20;33.80
27671;DHT22;15077;49.704;9.908;2023-07-09T12:08:44;38.30;32.50
27671;DHT22;15077;49.704;9.908;2023-07-09T12:14:03;38.30;32.50
27671;DHT22;15077;49.704;9.908;2023-07-09T12:16:34;38.40;33.30
27671;DHT22;15077;49.704;9.908;2023-07-09T12:19:01;38.30;33.30
27671;DHT22;15077;49.704;9.908;2023-07-09T12:21:27;38.40;32.00
27671;DHT22;15077;49.704;9.908;2023-07-09T12:23:55;38.40;31.90
27671;DHT22;15077;49.704;9.908;2023-07-09T12:26:23;38.40;32.00
27671;DHT22;15077;49.704;9.908;2023-07-09T12:28:53;38.50;31.90
27671;DHT22;15077;49.704;9.908;2023-07-09T12:31:27;38.40;31.90
27671;DHT22;15077;49.704;9.908;2023-07-09T12:33:56;38.40;32.30
27671;DHT22;15077;49.704;9.908;2023-07-09T12:36:25;38.50;31.70
27671;DHT22;15077;49.704;9.908;2023-07-09T12:38:56;38.60;32.10
27671;DHT22;15077;49.704;9.908;2023-07-09T12:41:29;38.60;31.70
27671;DHT22;15077;49.704;9.908;2023-07-09T12:44:01;38.70;31.10
27671;DHT22;15077;49.704;9.908;2023-07-09T12:46:28;38.60;31.50
27671;DHT22;15077;49.704;9.908;2023-07-09T12:48:55;38.70;30.70
27671;DHT22;15077;49.704;9.908;2023-07-09T12:51:24;38.70;30.80
27671;DHT22;15077;49.704;9.908;2023-07-09T12:54:15;38.70;31.20
27671;DHT22;15077;49.704;9.908;2023-07-09T12:56:42;38.70;31.50
27671;DHT22;15077;49.704;9.908;2023-07-09T13:01:50;38.80;31.60
27671;DHT22;15077;49.704;9.908;2023-07-09T13:04:32;38.80;30.80
27671;DHT22;15077;49.704;9.908;2023-07-09T13:07:00;38.90;30.10
27671;DHT22;15077;49.704;9.908;2023-07-09T13:09:27;38.90;30.10
27671;DHT22;15077;49.704;9.908;2023-07-09T13:11:54;38.90;30.10
27671;DHT22;15077;49.704;9.908;2023-07-09T13:14:31;38.90;30.80
27671;DHT22;15077;49.704;9.908;2023-07-09T13:17:05;38.80;30.80
27671;DHT22;15077;49.704;9.908;2023-07-09T13:19:33;38.90;30.90
27671;DHT22;15077;49.704;9.908;2023-07-09T13:21:59;39.00;31.10
27671;DHT22;15077;49.704;9.908;2023-07-09T13:24:28;39.00;30.10
27671;DHT22;15077;49.704;9.908;2023-07-09T13:26:55;39.10;30.00
27671;DHT22;15077;49.704;9.908;2023-07-09T13:29:25;39.10;30.00
27671;DHT22;15077;49.704;9.908;2023-07-09T13:31:52;39.10;29.90
27671;DHT22;15077;49.704;9.908;2023-07-09T13:34:23;39.10;30.10
27671;DHT22;15077;49.704;9.908;2023-07-09T13:36:54;39.20;29.90
27671;DHT22;15077;49.704;9.908;2023-07-09T13:39:24;39.20;30.10
27671;DHT22;15077;49.704;9.908;2023-07-09T13:41:52;39.20;30.00
27671;DHT22;15077;49.704;9.908;2023-07-09T13:44:24;39.30;30.10
27671;DHT22;15077;49.704;9.908;2023-07-09T13:46:53;39.30;30.40
27671;DHT22;15077;49.704;9.908;2023-07-09T13:49:21;39.40;30.30
27671;DHT22;15077;49.704;9.908;2023-07-09T13:51:51;39.40;30.20
27671;DHT22;15077;49.704;9.908;2023-07-09T13:54:22;39.50;30.30
27671;DHT22;15077;49.704;9.908;2023-07-09T13:56:50;39.60;30.10
27671;DHT22;15077;49.704;9.908;2023-07-09T13:59:22;39.60;30.20
27671;DHT22;15077;49.704;9.908;2023-07-09T14:01:52;39.70;30.00
27671;DHT22;15077;49.704;9.908;2023-07-09T14:04:20;39.80;30.00
27671;DHT22;15077;49.704;9.908;2023-07-09T14:06:47;39.80;29.90
27671;DHT22;15077;49.704;9.908;2023-07-09T14:09:14;39.80;29.70
27671;DHT22;15077;49.704;9.908;2023-07-09T14:11:53;39.90;29.10
27671;DHT22;15077;49.704;9.908;2023-07-09T14:14:22;39.90;29.50
27671;DHT22;15077;49.704;9.908;2023-07-09T14:16:53;39.80;29.60
27671;DHT22;15077;49.704;9.908;2023-07-09T14:19:23;39.80;29.50
27671;DHT22;15077;49.704;9.908;2023-07-09T14:21:51;39.80;29.30
27671;DHT22;15077;49.704;9.908;2023-07-09T14:24:27;39.80;29.40
27671;DHT22;15077;49.704;9.908;2023-07-09T14:26:56;39.80;29.50
27671;DHT22;15077;49.704;9.908;2023-07-09T14:29:24;39.80;29.20
27671;DHT22;15077;49.704;9.908;2023-07-09T14:31:51;39.80;29.60
27671;DHT22;15077;49.704;9.908;2023-07-09T14:34:23;39.80;29.40
27671;DHT22;15077;49.704;9.908;2023-07-09T14:36:56;39.90;29.30
27671;DHT22;15077;49.704;9.908;2023-07-09T14:39:26;40.00;29.50
27671;DHT22;15077;49.704;9.908;2023-07-09T14:41:53;40.00;29.20
27671;DHT22;15077;49.704;9.908;2023-07-09T14:44:30;40.00;29.30
27671;DHT22;15077;49.704;9.908;2023-07-09T14:46:58;40.10;29.70
27671;DHT22;15077;49.704;9.908;2023-07-09T14:49:26;40.10;29.50
27671;DHT22;15077;49.704;9.908;2023-07-09T14:51:53;40.20;29.70
27671;DHT22;15077;49.704;9.908;2023-07-09T14:54:25;40.20;29.30
27671;DHT22;15077;49.704;9.908;2023-07-09T14:56:54;40.30;29.20
27671;DHT22;15077;49.704;9.908;2023-07-09T14:59:21;40.30;29.40
27671;DHT22;15077;49.704;9.908;2023-07-09T15:01:47;40.30;28.50
27671;DHT22;15077;49.704;9.908;2023-07-09T15:06:51;40.30;28.90
27671;DHT22;15077;49.704;9.908;2023-07-09T15:09:24;40.30;28.70
27671;DHT22;15077;49.704;9.908;2023-07-09T15:11:58;40.20;28.60
27671;DHT22;15077;49.704;9.908;2023-07-09T15:14:26;40.20;28.40
27671;DHT22;15077;49.704;9.908;2023-07-09T15:16:53;40.10;28.70
27671;DHT22;15077;49.704;9.908;2023-07-09T15:19:21;40.10;29.20
27671;DHT22;15077;49.704;9.908;2023-07-09T15:21:49;40.00;29.20
27671;DHT22;15077;49.704;9.908;2023-07-09T15:24:26;40.00;29.20
27671;DHT22;15077;49.704;9.908;2023-07-09T15:26:56;40.10;29.10
27671;DHT22;15077;49.704;9.908;2023-07-09T15:29:23;40.10;29.00
27671;DHT22;15077;49.704;9.908;2023-07-09T15:31:49;40.20;29.30
27671;DHT22;15077;49.704;9.908;2023-07-09T15:34:15;40.20;29.40
27671;DHT22;15077;49.704;9.908;2023-07-09T15:36:50;40.20;29.00
27671;DHT22;15077;49.704;9.908;2023-07-09T15:39:18;40.30;29.20
27671;DHT22;15077;49.704;9.908;2023-07-09T15:41:46;40.30;29.00
27671;DHT22;15077;49.704;9.908;2023-07-09T15:44:17;40.30;29.10
27671;DHT22;15077;49.704;9.908;2023-07-09T15:46:52;40.30;29.00
27671;DHT22;15077;49.704;9.908;2023-07-09T15:49:21;40.30;29.20
27671;DHT22;15077;49.704;9.908;2023-07-09T15:51:47;40.30;29.10
27671;DHT22;15077;49.704;9.908;2023-07-09T15:54:18;40.30;28.80
27671;DHT22;15077;49.704;9.908;2023-07-09T15:56:48;40.20;28.80
27671;DHT22;15077;49.704;9.908;2023-07-09T15:59:29;40.20;28.60
27671;DHT22;15077;49.704;9.908;2023-07-09T16:01:58;40.20;28.40
27671;DHT22;15077;49.704;9.908;2023-07-09T16:04:26;40.10;28.70
27671;DHT22;15077;49.704;9.908;2023-07-09T16:06:53;40.00;28.60
27671;DHT22;15077;49.704;9.908;2023-07-09T16:09:19;40.00;28.90
27671;DHT22;15077;49.704;9.908;2023-07-09T16:11:48;40.00;29.00
27671;DHT22;15077;49.704;9.908;2023-07-09T16:14:23;40.00;28.90
27671;DHT22;15077;49.704;9.908;2023-07-09T16:16:53;40.00;28.90
27671;DHT22;15077;49.704;9.908;2023-07-09T16:19:21;40.00;28.70
27671;DHT22;15077;49.704;9.908;2023-07-09T16:21:52;40.00;28.70
27671;DHT22;15077;49.704;9.908;2023-07-09T16:24:29;39.90;28.60
27671;DHT22;15077;49.704;9.908;2023-07-09T16:26:58;39.90;28.70
27671;DHT22;15077;49.704;9.908;2023-07-09T16:29:31;39.90;28.90
27671;DHT22;15077;49.704;9.908;2023-07-09T16:32:00;39.80;29.30
27671;DHT22;15077;49.704;9.908;2023-07-09T16:34:29;39.80;29.60
27671;DHT22;15077;49.704;9.908;2023-07-09T16:36:56;39.80;29.70